sensor_id;sensor_type;location;lat;lon;timestamp;temperature;humidity
22562;DHT22;11447;50.562;8.504;2022-08-21T00:01:39;20.00;65.60
22562;DHT22;11447;50.562;8.504;2022-08-21T00:04:09;19.90;65.80
22562;DHT22;11447;50.562;8.504;2022-08-21T00:06:39;19.90;66.10
22562;DHT22;11447;50.562;8.504;2022-08-21T00:09:07;19.80;66.20
22562;DHT22;11447;50.562;8.504;2022-08-21T00:11:37;19.80;66.00
22562;DHT22;11447;50.562;8.504;2022-08-21T00:14:07;19.80;66.20
22562;DHT22;11447;50.562;8.504;2022-08-21T00:16:34;19.70;67.50
22562;DHT22;11447;50.562;8.504;2022-08-21T00:19:04;19.70;67.00
22562;DHT22;11447;50.562;8.504;2022-08-21T00:21:31;19.70;67.00
22562;DHT22;11447;50.562;8.504;2022-08-21T00:23:58;19.70;67.20
22562;DHT22;11447;50.562;8.504;2022-08-21T00:26:25;19.70;67.10
22562;DHT22;11447;50.562;8.504;2022-08-21T00:28:52;19.60;67.20
22562;DHT22;11447;50.562;8.504;2022-08-21T00:31:20;19.50;68.00
22562;DHT22;11447;50.562;8.504;2022-08-21T00:33:47;19.40;68.10
22562;DHT22;11447;50.562;8.504;2022-08-21T00:36:14;19.40;68.60
22562;DHT22;11447;50.562;8.504;2022-08-21T00:38:42;19.40;69.00
22562;DHT22;11447;50.562;8.504;2022-08-21T00:41:10;19.40;69.10
22562;DHT22;11447;50.562;8.504;2022-08-21T00:43:59;19.30;69.10
22562;DHT22;11447;50.562;8.504;2022-08-21T00:46:26;19.30;69.10
22562;DHT22;11447;50.562;8.504;2022-08-21T00:48:56;19.20;69.40
22562;DHT22;11447;50.562;8.504;2022-08-21T00:51:49;19.10;69.70
22562;DHT22;11447;50.562;8.504;2022-08-21T00:54:17;19.10;69.90
22562;DHT22;11447;50.562;8.504;2022-08-21T00:56:48;19.00;70.40
22562;DHT22;11447;50.562;8.504;2022-08-21T00:59:17;19.00;70.90
22562;DHT22;11447;50.562;8.504;2022-08-21T01:01:44;18.90;70.90
22562;DHT22;11447;50.562;8.504;2022-08-21T01:04:11;18.90;71.20
22562;DHT22;11447;50.562;8.504;2022-08-21T01:06:38;18.80;71.30
22562;DHT22;11447;50.562;8.504;2022-08-21T01:09:04;18.80;71.30
22562;DHT22;11447;50.562;8.504;2022-08-21T01:11:31;18.80;71.10
22562;DHT22;11447;50.562;8.504;2022-08-21T01:14:00;18.80;71.20
22562;DHT22;11447;50.562;8.504;2022-08-21T01:16:29;18.80;71.30
22562;DHT22;11447;50.562;8.504;2022-08-21T01:18:56;18.80;71.40
22562;DHT22;11447;50.562;8.504;2022-08-21T01:21:26;18.70;71.70
22562;DHT22;11447;50.562;8.504;2022-08-21T01:23:56;18.70;72.00
22562;DHT22;11447;50.562;8.504;2022-08-21T01:26:24;18.60;72.30
22562;DHT22;11447;50.562;8.504;2022-08-21T01:31:45;18.60;72.40
22562;DHT22;11447;50.562;8.504;2022-08-21T01:34:14;18.60;72.50
22562;DHT22;11447;50.562;8.504;2022-08-21T01:36:42;18.50;72.50
22562;DHT22;11447;50.562;8.504;2022-08-21T01:39:09;18.50;73.00
22562;DHT22;11447;50.562;8.504;2022-08-21T01:41:41;18.40;73.30
22562;DHT22;11447;50.562;8.504;2022-08-21T01:44:11;18.30;73.60
22562;DHT22;11447;50.562;8.504;2022-08-21T01:46:42;18.30;74.00
22562;DHT22;11447;50.562;8.504;2022-08-21T01:49:14;18.30;74.10
22562;DHT22;11447;50.562;8.504;2022-08-21T01:51:41;18.20;74.20
22562;DHT22;11447;50.562;8.504;2022-08-21T01:54:08;18.20;74.20
22562;DHT22;11447;50.562;8.504;2022-08-21T01:56:36;18.20;74.40
22562;DHT22;11447;50.562;8.504;2022-08-21T01:59:02;18.20;74.70
22562;DHT22;11447;50.562;8.504;2022-08-21T02:01:29;18.10;74.80
22562;DHT22;11447;50.562;8.504;2022-08-21T02:03:55;18.10;75.10
22562;DHT22;11447;50.562;8.504;2022-08-21T02:06:22;18.10;75.40
22562;DHT22;11447;50.562;8.504;2022-08-21T02:08:49;18.00;75.70
22562;DHT22;11447;50.562;8.504;2022-08-21T02:11:17;18.00;76.00
22562;DHT22;11447;50.562;8.504;2022-08-21T02:13:49;17.90;76.40
22562;DHT22;11447;50.562;8.504;2022-08-21T02:16:16;17.80;76.50
22562;DHT22;11447;50.562;8.504;2022-08-21T02:18:45;17.80;76.80
22562;DHT22;11447;50.562;8.504;2022-08-21T02:21:11;17.70;77.40
22562;DHT22;11447;50.562;8.504;2022-08-21T02:23:38;17.60;77.80
22562;DHT22;11447;50.562;8.504;2022-08-21T02:26:07;17.60;78.10
22562;DHT22;11447;50.562;8.504;2022-08-21T02:28:35;17.60;78.80
22562;DHT22;11447;50.562;8.504;2022-08-21T02:31:04;17.60;78.80
22562;DHT22;11447;50.562;8.504;2022-08-21T02:33:33;17.60;78.90
22562;DHT22;11447;50.562;8.504;2022-08-21T02:36:00;17.60;79.00
22562;DHT22;11447;50.562;8.504;2022-08-21T02:38:32;17.60;79.00
22562;DHT22;11447;50.562;8.504;2022-08-21T02:41:00;17.50;79.00
22562;DHT22;11447;50.562;8.504;2022-08-21T02:43:29;17.50;79.30
22562;DHT22;11447;50.562;8.504;2022-08-21T02:45:56;17.50;79.30
22562;DHT22;11447;50.562;8.504;2022-08-21T02:48:27;17.50;79.40
22562;DHT22;11447;50.562;8.504;2022-08-21T02:50:55;17.50;79.20
22562;DHT22;11447;50.562;8.504;2022-08-21T02:53:22;17.50;79.30
22562;DHT22;11447;50.562;8.504;2022-08-21T02:55:53;17.50;79.50
22562;DHT22;11447;50.562;8.504;2022-08-21T02:58:21;17.40;79.80
22562;DHT22;11447;50.562;8.504;2022-08-21T03:00:48;17.40;79.90
22562;DHT22;11447;50.562;8.504;2022-08-21T03:03:16;17.40;80.00
22562;DHT22;11447;50.562;8.504;2022-08-21T03:05:43;17.40;80.20
22562;DHT22;11447;50.562;8.504;2022-08-21T03:08:11;17.30;81.20
22562;DHT22;11447;50.562;8.504;2022-08-21T03:10:39;17.30;80.30
22562;DHT22;11447;50.562;8.504;2022-08-21T03:13:06;17.30;80.50
22562;DHT22;11447;50.562;8.504;2022-08-21T03:15:36;17.20;80.70
22562;DHT22;11447;50.562;8.504;2022-08-21T03:18:03;17.20;80.90
22562;DHT22;11447;50.562;8.504;2022-08-21T03:20:31;17.20;81.10
22562;DHT22;11447;50.562;8.504;2022-08-21T03:22:59;17.20;81.10
22562;DHT22;11447;50.562;8.504;2022-08-21T03:25:28;17.20;81.60
22562;DHT22;11447;50.562;8.504;2022-08-21T03:28:07;17.20;81.80
22562;DHT22;11447;50.562;8.504;2022-08-21T03:30:38;17.10;81.70
22562;DHT22;11447;50.562;8.504;2022-08-21T03:33:07;17.10;81.80
22562;DHT22;11447;50.562;8.504;2022-08-21T03:35:40;17.00;82.10
22562;DHT22;11447;50.562;8.504;2022-08-21T03:38:08;17.00;82.30
22562;DHT22;11447;50.562;8.504;2022-08-21T03:40:35;17.00;82.50
22562;DHT22;11447;50.562;8.504;2022-08-21T03:43:02;16.90;82.70
22562;DHT22;11447;50.562;8.504;2022-08-21T03:45:31;16.90;82.80
22562;DHT22;11447;50.562;8.504;2022-08-21T03:48:00;16.90;82.40
22562;DHT22;11447;50.562;8.504;2022-08-21T03:50:32;16.90;82.20
22562;DHT22;11447;50.562;8.504;2022-08-21T03:53:01;16.90;82.80
22562;DHT22;11447;50.562;8.504;2022-08-21T03:55:28;16.80;82.70
22562;DHT22;11447;50.562;8.504;2022-08-21T03:57:55;16.80;83.20
22562;DHT22;11447;50.562;8.504;2022-08-21T04:00:22;16.70;83.40
22562;DHT22;11447;50.562;8.504;2022-08-21T04:02:48;16.70;83.70
22562;DHT22;11447;50.562;8.504;2022-08-21T04:05:16;16.70;84.00
22562;DHT22;11447;50.562;8.504;2022-08-21T04:07:54;16.70;83.90
22562;DHT22;11447;50.562;8.504;2022-08-21T04:10:23;16.60;84.00
22562;DHT22;11447;50.562;8.504;2022-08-21T04:12:51;16.60;84.30
22562;DHT22;11447;50.562;8.504;2022-08-21T04:15:21;16.60;84.70
22562;DHT22;11447;50.562;8.504;2022-08-21T04:17:50;16.50;84.60
22562;DHT22;11447;50.562;8.504;2022-08-21T04:20:17;16.50;85.00
22562;DHT22;11447;50.562;8.504;2022-08-21T04:22:46;16.50;84.80
22562;DHT22;11447;50.562;8.504;2022-08-21T04:25:16;16.50;85.30
22562;DHT22;11447;50.562;8.504;2022-08-21T04:27:44;16.50;85.50
22562;DHT22;11447;50.562;8.504;2022-08-21T04:30:13;16.40;85.50
22562;DHT22;11447;50.562;8.504;2022-08-21T04:32:44;16.40;86.10
22562;DHT22;11447;50.562;8.504;2022-08-21T04:35:22;16.40;86.50
22562;DHT22;11447;50.562;8.504;2022-08-21T04:37:49;16.40;86.60
22562;DHT22;11447;50.562;8.504;2022-08-21T04:40:16;16.30;86.40
22562;DHT22;11447;50.562;8.504;2022-08-21T04:42:46;16.30;86.80
22562;DHT22;11447;50.562;8.504;2022-08-21T04:47:49;16.20;87.90
22562;DHT22;11447;50.562;8.504;2022-08-21T04:50:19;16.20;88.00
22562;DHT22;11447;50.562;8.504;2022-08-21T04:52:48;16.20;88.00
22562;DHT22;11447;50.562;8.504;2022-08-21T04:55:15;16.20;87.80
22562;DHT22;11447;50.562;8.504;2022-08-21T04:57:42;16.20;87.70
22562;DHT22;11447;50.562;8.504;2022-08-21T05:00:15;16.20;87.70
22562;DHT22;11447;50.562;8.504;2022-08-21T05:02:44;16.20;87.60
22562;DHT22;11447;50.562;8.504;2022-08-21T05:05:13;16.20;87.60
22562;DHT22;11447;50.562;8.504;2022-08-21T05:07:40;16.20;87.80
22562;DHT22;11447;50.562;8.504;2022-08-21T05:10:08;16.20;88.10
22562;DHT22;11447;50.562;8.504;2022-08-21T05:12:39;16.20;87.90
22562;DHT22;11447;50.562;8.504;2022-08-21T05:15:08;16.20;87.90
22562;DHT22;11447;50.562;8.504;2022-08-21T05:17:41;16.20;88.10
22562;DHT22;11447;50.562;8.504;2022-08-21T05:20:26;16.20;88.00
22562;DHT22;11447;50.562;8.504;2022-08-21T05:22:55;16.20;88.00
22562;DHT22;11447;50.562;8.504;2022-08-21T05:25:21;16.30;88.00
22562;DHT22;11447;50.562;8.504;2022-08-21T05:27:53;16.20;87.80
22562;DHT22;11447;50.562;8.504;2022-08-21T05:30:20;16.30;87.60
22562;DHT22;11447;50.562;8.504;2022-08-21T05:32:49;16.30;87.60
22562;DHT22;11447;50.562;8.504;2022-08-21T05:35:15;16.30;87.50
22562;DHT22;11447;50.562;8.504;2022-08-21T05:37:42;16.20;87.70
22562;DHT22;11447;50.562;8.504;2022-08-21T05:40:09;16.30;87.60
22562;DHT22;11447;50.562;8.504;2022-08-21T05:42:52;16.20;87.50
22562;DHT22;11447;50.562;8.504;2022-08-21T05:45:22;16.30;87.50
22562;DHT22;11447;50.562;8.504;2022-08-21T05:48:08;16.30;87.40
22562;DHT22;11447;50.562;8.504;2022-08-21T05:50:35;16.20;88.10
22562;DHT22;11447;50.562;8.504;2022-08-21T05:53:04;16.20;88.30
22562;DHT22;11447;50.562;8.504;2022-08-21T05:55:33;16.30;88.90
22562;DHT22;11447;50.562;8.504;2022-08-21T05:57:59;16.40;87.70
22562;DHT22;11447;50.562;8.504;2022-08-21T06:00:27;16.40;88.10
22562;DHT22;11447;50.562;8.504;2022-08-21T06:02:58;16.50;87.90
22562;DHT22;11447;50.562;8.504;2022-08-21T06:05:25;16.50;87.70
22562;DHT22;11447;50.562;8.504;2022-08-21T06:08:03;16.60;87.40
22562;DHT22;11447;50.562;8.504;2022-08-21T06:10:32;16.60;87.30
22562;DHT22;11447;50.562;8.504;2022-08-21T06:12:58;16.70;87.00
22562;DHT22;11447;50.562;8.504;2022-08-21T06:15:25;16.80;86.70
22562;DHT22;11447;50.562;8.504;2022-08-21T06:17:52;16.90;86.50
22562;DHT22;11447;50.562;8.504;2022-08-21T06:20:19;17.00;85.80
22562;DHT22;11447;50.562;8.504;2022-08-21T06:22:48;17.00;85.40
22562;DHT22;11447;50.562;8.504;2022-08-21T06:25:15;17.10;85.10
22562;DHT22;11447;50.562;8.504;2022-08-21T06:27:42;17.20;85.10
22562;DHT22;11447;50.562;8.504;2022-08-21T06:30:11;17.30;84.60
22562;DHT22;11447;50.562;8.504;2022-08-21T06:32:38;17.50;84.00
22562;DHT22;11447;50.562;8.504;2022-08-21T06:35:05;17.80;83.30
22562;DHT22;11447;50.562;8.504;2022-08-21T06:37:32;19.20;80.20
22562;DHT22;11447;50.562;8.504;2022-08-21T06:39:59;20.80;73.80
22562;DHT22;11447;50.562;8.504;2022-08-21T06:42:25;22.20;67.40
22562;DHT22;11447;50.562;8.504;2022-08-21T06:44:54;23.40;61.90
22562;DHT22;11447;50.562;8.504;2022-08-21T06:47:21;24.30;58.30
22562;DHT22;11447;50.562;8.504;2022-08-21T06:49:49;25.10;55.80
22562;DHT22;11447;50.562;8.504;2022-08-21T06:52:16;26.00;53.70
22562;DHT22;11447;50.562;8.504;2022-08-21T06:54:43;26.50;51.80
22562;DHT22;11447;50.562;8.504;2022-08-21T06:57:09;27.10;50.60
22562;DHT22;11447;50.562;8.504;2022-08-21T06:59:36;27.50;49.30
22562;DHT22;11447;50.562;8.504;2022-08-21T07:02:03;27.90;48.40
22562;DHT22;11447;50.562;8.504;2022-08-21T07:04:29;28.20;47.70
22562;DHT22;11447;50.562;8.504;2022-08-21T07:06:58;28.60;46.80
22562;DHT22;11447;50.562;8.504;2022-08-21T07:09:30;28.90;45.40
22562;DHT22;11447;50.562;8.504;2022-08-21T07:11:56;29.10;45.40
22562;DHT22;11447;50.562;8.504;2022-08-21T07:14:23;29.40;45.20
22562;DHT22;11447;50.562;8.504;2022-08-21T07:16:52;29.50;44.70
22562;DHT22;11447;50.562;8.504;2022-08-21T07:19:19;29.60;44.30
22562;DHT22;11447;50.562;8.504;2022-08-21T07:21:46;29.70;43.90
22562;DHT22;11447;50.562;8.504;2022-08-21T07:24:13;29.70;43.10
22562;DHT22;11447;50.562;8.504;2022-08-21T07:26:40;29.20;43.70
22562;DHT22;11447;50.562;8.504;2022-08-21T07:29:09;28.90;44.30
22562;DHT22;11447;50.562;8.504;2022-08-21T07:31:35;28.90;44.60
22562;DHT22;11447;50.562;8.504;2022-08-21T07:34:04;28.80;44.20
22562;DHT22;11447;50.562;8.504;2022-08-21T07:36:31;28.70;44.80
22562;DHT22;11447;50.562;8.504;2022-08-21T07:39:00;28.50;46.00
22562;DHT22;11447;50.562;8.504;2022-08-21T07:41:29;28.40;45.70
22562;DHT22;11447;50.562;8.504;2022-08-21T07:43:58;28.10;45.90
22562;DHT22;11447;50.562;8.504;2022-08-21T07:46:25;27.90;46.00
22562;DHT22;11447;50.562;8.504;2022-08-21T07:48:52;27.50;46.20
22562;DHT22;11447;50.562;8.504;2022-08-21T07:51:20;27.20;46.40
22562;DHT22;11447;50.562;8.504;2022-08-21T07:53:48;26.90;46.60
22562;DHT22;11447;50.562;8.504;2022-08-21T07:56:16;26.60;47.50
22562;DHT22;11447;50.562;8.504;2022-08-21T07:58:45;26.30;47.90
22562;DHT22;11447;50.562;8.504;2022-08-21T08:01:11;26.20;48.10
22562;DHT22;11447;50.562;8.504;2022-08-21T08:03:40;26.00;48.30
22562;DHT22;11447;50.562;8.504;2022-08-21T08:06:07;26.00;48.60
22562;DHT22;11447;50.562;8.504;2022-08-21T08:08:38;26.00;48.80
22562;DHT22;11447;50.562;8.504;2022-08-21T08:11:08;25.90;48.60
22562;DHT22;11447;50.562;8.504;2022-08-21T08:13:44;25.80;48.80
22562;DHT22;11447;50.562;8.504;2022-08-21T08:16:13;25.80;48.90
22562;DHT22;11447;50.562;8.504;2022-08-21T08:18:40;25.80;48.80
22562;DHT22;11447;50.562;8.504;2022-08-21T08:21:11;25.80;49.00
22562;DHT22;11447;50.562;8.504;2022-08-21T08:23:40;25.80;49.10
22562;DHT22;11447;50.562;8.504;2022-08-21T08:26:07;25.90;49.00
22562;DHT22;11447;50.562;8.504;2022-08-21T08:28:34;25.90;49.00
22562;DHT22;11447;50.562;8.504;2022-08-21T08:31:00;25.80;48.80
22562;DHT22;11447;50.562;8.504;2022-08-21T08:33:27;25.80;48.90
22562;DHT22;11447;50.562;8.504;2022-08-21T08:35:54;25.80;48.70
22562;DHT22;11447;50.562;8.504;2022-08-21T08:38:22;25.90;48.70
22562;DHT22;11447;50.562;8.504;2022-08-21T08:40:52;25.90;48.70
22562;DHT22;11447;50.562;8.504;2022-08-21T08:43:21;25.90;48.50
22562;DHT22;11447;50.562;8.504;2022-08-21T08:45:50;26.00;48.40
22562;DHT22;11447;50.562;8.504;2022-08-21T08:51:06;26.10;48.40
22562;DHT22;11447;50.562;8.504;2022-08-21T08:53:38;26.20;48.40
22562;DHT22;11447;50.562;8.504;2022-08-21T08:56:11;26.30;48.20
22562;DHT22;11447;50.562;8.504;2022-08-21T08:58:39;26.30;48.20
22562;DHT22;11447;50.562;8.504;2022-08-21T09:01:11;26.20;47.70
22562;DHT22;11447;50.562;8.504;2022-08-21T09:03:41;26.10;47.80
22562;DHT22;11447;50.562;8.504;2022-08-21T09:06:12;26.10;47.80
22562;DHT22;11447;50.562;8.504;2022-08-21T09:13:50;26.20;47.30
22562;DHT22;11447;50.562;8.504;2022-08-21T09:16:30;26.10;47.30
22562;DHT22;11447;50.562;8.504;2022-08-21T09:19:17;26.10;47.00
22562;DHT22;11447;50.562;8.504;2022-08-21T09:26:59;26.10;45.80
22562;DHT22;11447;50.562;8.504;2022-08-21T09:29:30;26.20;45.60
22562;DHT22;11447;50.562;8.504;2022-08-21T09:31:58;26.20;45.80
22562;DHT22;11447;50.562;8.504;2022-08-21T09:34:25;26.10;45.90
22562;DHT22;11447;50.562;8.504;2022-08-21T09:36:55;26.20;46.20
22562;DHT22;11447;50.562;8.504;2022-08-21T09:39:26;26.20;45.80
22562;DHT22;11447;50.562;8.504;2022-08-21T09:42:00;26.10;46.00
22562;DHT22;11447;50.562;8.504;2022-08-21T09:44:29;26.10;46.10
22562;DHT22;11447;50.562;8.504;2022-08-21T09:46:56;26.10;45.10
22562;DHT22;11447;50.562;8.504;2022-08-21T09:49:29;25.90;45.10
22562;DHT22;11447;50.562;8.504;2022-08-21T09:51:56;25.90;45.10
22562;DHT22;11447;50.562;8.504;2022-08-21T09:54:29;25.80;45.10
22562;DHT22;11447;50.562;8.504;2022-08-21T09:56:57;25.90;45.40
22562;DHT22;11447;50.562;8.504;2022-08-21T09:59:43;25.90;45.50
22562;DHT22;11447;50.562;8.504;2022-08-21T10:04:49;26.00;45.30
22562;DHT22;11447;50.562;8.504;2022-08-21T10:07:20;25.90;45.20
22562;DHT22;11447;50.562;8.504;2022-08-21T10:09:57;25.90;45.60
22562;DHT22;11447;50.562;8.504;2022-08-21T10:12:32;26.00;45.50
22562;DHT22;11447;50.562;8.504;2022-08-21T10:17:38;26.00;45.40
22562;DHT22;11447;50.562;8.504;2022-08-21T10:20:23;26.10;45.20
22562;DHT22;11447;50.562;8.504;2022-08-21T10:23:02;26.10;45.30
22562;DHT22;11447;50.562;8.504;2022-08-21T10:25:42;26.10;44.70
22562;DHT22;11447;50.562;8.504;2022-08-21T10:34:11;26.10;45.10
22562;DHT22;11447;50.562;8.504;2022-08-21T10:36:35;26.10;44.90
22562;DHT22;11447;50.562;8.504;2022-08-21T10:39:18;26.20;45.10
22562;DHT22;11447;50.562;8.504;2022-08-21T10:44:49;26.10;44.90
22562;DHT22;11447;50.562;8.504;2022-08-21T10:47:38;26.10;45.10
22562;DHT22;11447;50.562;8.504;2022-08-21T10:50:10;26.10;45.10
22562;DHT22;11447;50.562;8.504;2022-08-21T10:57:44;26.20;44.50
22562;DHT22;11447;50.562;8.504;2022-08-21T11:00:21;26.30;44.60
22562;DHT22;11447;50.562;8.504;2022-08-21T11:02:51;26.40;44.40
22562;DHT22;11447;50.562;8.504;2022-08-21T11:08:01;26.40;44.10
22562;DHT22;11447;50.562;8.504;2022-08-21T11:15:51;26.50;43.90
22562;DHT22;11447;50.562;8.504;2022-08-21T11:18:36;26.50;43.30
22562;DHT22;11447;50.562;8.504;2022-08-21T11:23:58;26.60;43.10
22562;DHT22;11447;50.562;8.504;2022-08-21T11:29:18;26.70;42.60
22562;DHT22;11447;50.562;8.504;2022-08-21T11:34:38;26.70;42.70
22562;DHT22;11447;50.562;8.504;2022-08-21T11:37:17;26.70;42.70
22562;DHT22;11447;50.562;8.504;2022-08-21T11:47:46;26.90;42.50
22562;DHT22;11447;50.562;8.504;2022-08-21T11:50:37;27.00;42.50
22562;DHT22;11447;50.562;8.504;2022-08-21T11:55:55;27.10;41.70
22562;DHT22;11447;50.562;8.504;2022-08-21T11:58:25;27.20;41.90
22562;DHT22;11447;50.562;8.504;2022-08-21T12:01:04;27.30;40.90
22562;DHT22;11447;50.562;8.504;2022-08-21T12:03:38;27.20;40.90
22562;DHT22;11447;50.562;8.504;2022-08-21T12:06:12;27.10;41.20
22562;DHT22;11447;50.562;8.504;2022-08-21T12:08:56;27.20;41.40
22562;DHT22;11447;50.562;8.504;2022-08-21T12:11:24;27.30;41.00
22562;DHT22;11447;50.562;8.504;2022-08-21T12:16:30;27.20;41.10
22562;DHT22;11447;50.562;8.504;2022-08-21T12:19:08;27.20;41.10
22562;DHT22;11447;50.562;8.504;2022-08-21T12:24:38;27.40;41.00
22562;DHT22;11447;50.562;8.504;2022-08-21T12:29:45;27.60;40.60
22562;DHT22;11447;50.562;8.504;2022-08-21T12:34:42;27.80;39.80
22562;DHT22;11447;50.562;8.504;2022-08-21T12:37:18;27.80;39.70
22562;DHT22;11447;50.562;8.504;2022-08-21T12:39:49;27.80;39.50
22562;DHT22;11447;50.562;8.504;2022-08-21T12:42:18;27.80;39.40
22562;DHT22;11447;50.562;8.504;2022-08-21T12:44:54;27.90;39.40
22562;DHT22;11447;50.562;8.504;2022-08-21T12:49:56;27.90;39.50
22562;DHT22;11447;50.562;8.504;2022-08-21T12:54:57;27.90;39.50
22562;DHT22;11447;50.562;8.504;2022-08-21T12:57:25;27.80;38.90
22562;DHT22;11447;50.562;8.504;2022-08-21T12:59:58;27.80;39.00
22562;DHT22;11447;50.562;8.504;2022-08-21T13:02:28;27.80;38.10
22562;DHT22;11447;50.562;8.504;2022-08-21T13:04:56;27.80;38.10
22562;DHT22;11447;50.562;8.504;2022-08-21T13:07:30;27.80;37.90
22562;DHT22;11447;50.562;8.504;2022-08-21T13:10:02;27.80;37.70
22562;DHT22;11447;50.562;8.504;2022-08-21T13:12:30;27.80;37.70
22562;DHT22;11447;50.562;8.504;2022-08-21T13:15:01;27.80;37.80
22562;DHT22;11447;50.562;8.504;2022-08-21T13:17:30;27.80;37.40
22562;DHT22;11447;50.562;8.504;2022-08-21T13:19:58;27.90;37.30
22562;DHT22;11447;50.562;8.504;2022-08-21T13:22:26;27.90;36.90
22562;DHT22;11447;50.562;8.504;2022-08-21T13:25:00;27.90;36.90
22562;DHT22;11447;50.562;8.504;2022-08-21T13:27:32;27.90;36.50
22562;DHT22;11447;50.562;8.504;2022-08-21T13:32:32;28.00;37.00
22562;DHT22;11447;50.562;8.504;2022-08-21T13:35:07;28.00;36.70
22562;DHT22;11447;50.562;8.504;2022-08-21T13:37:35;27.90;36.70
22562;DHT22;11447;50.562;8.504;2022-08-21T13:40:06;27.90;36.70
22562;DHT22;11447;50.562;8.504;2022-08-21T13:42:35;27.80;36.70
22562;DHT22;11447;50.562;8.504;2022-08-21T13:45:04;27.80;36.60
22562;DHT22;11447;50.562;8.504;2022-08-21T13:47:37;27.60;36.70
22562;DHT22;11447;50.562;8.504;2022-08-21T13:50:04;27.60;37.00
22562;DHT22;11447;50.562;8.504;2022-08-21T13:52:31;27.60;37.00
22562;DHT22;11447;50.562;8.504;2022-08-21T13:55:07;27.60;37.00
22562;DHT22;11447;50.562;8.504;2022-08-21T13:57:36;27.70;36.80
22562;DHT22;11447;50.562;8.504;2022-08-21T14:03:23;27.70;36.90
22562;DHT22;11447;50.562;8.504;2022-08-21T14:05:46;27.70;36.60
22562;DHT22;11447;50.562;8.504;2022-08-21T14:08:38;27.80;37.00
22562;DHT22;11447;50.562;8.504;2022-08-21T14:11:09;27.80;37.20
22562;DHT22;11447;50.562;8.504;2022-08-21T14:21:33;28.00;36.50
22562;DHT22;11447;50.562;8.504;2022-08-21T14:26:30;28.20;36.30
22562;DHT22;11447;50.562;8.504;2022-08-21T14:28:58;28.20;36.30
22562;DHT22;11447;50.562;8.504;2022-08-21T14:31:28;28.20;36.50
22562;DHT22;11447;50.562;8.504;2022-08-21T14:33:56;28.20;36.40
22562;DHT22;11447;50.562;8.504;2022-08-21T14:36:22;28.20;36.10
22562;DHT22;11447;50.562;8.504;2022-08-21T14:38:49;28.20;36.20
22562;DHT22;11447;50.562;8.504;2022-08-21T14:41:17;28.20;36.10
22562;DHT22;11447;50.562;8.504;2022-08-21T14:43:45;28.10;35.50
22562;DHT22;11447;50.562;8.504;2022-08-21T14:46:31;28.00;35.40
22562;DHT22;11447;50.562;8.504;2022-08-21T14:48:58;28.00;35.80
22562;DHT22;11447;50.562;8.504;2022-08-21T14:51:25;27.90;36.00
22562;DHT22;11447;50.562;8.504;2022-08-21T14:53:51;27.90;36.10
22562;DHT22;11447;50.562;8.504;2022-08-21T14:56:18;27.80;36.00
22562;DHT22;11447;50.562;8.504;2022-08-21T14:58:46;27.80;36.10
22562;DHT22;11447;50.562;8.504;2022-08-21T15:01:16;27.90;36.10
22562;DHT22;11447;50.562;8.504;2022-08-21T15:03:45;27.80;36.00
22562;DHT22;11447;50.562;8.504;2022-08-21T15:06:15;27.80;35.90
22562;DHT22;11447;50.562;8.504;2022-08-21T15:08:42;27.80;36.20
22562;DHT22;11447;50.562;8.504;2022-08-21T15:11:11;27.90;36.20
22562;DHT22;11447;50.562;8.504;2022-08-21T15:14:02;27.90;36.00
22562;DHT22;11447;50.562;8.504;2022-08-21T15:16:31;27.90;35.90
22562;DHT22;11447;50.562;8.504;2022-08-21T15:18:58;27.90;35.80
22562;DHT22;11447;50.562;8.504;2022-08-21T15:21:24;27.90;35.80
22562;DHT22;11447;50.562;8.504;2022-08-21T15:23:51;27.90;36.00
22562;DHT22;11447;50.562;8.504;2022-08-21T15:26:18;28.00;36.30
22562;DHT22;11447;50.562;8.504;2022-08-21T15:28:47;28.00;36.20
22562;DHT22;11447;50.562;8.504;2022-08-21T15:31:16;28.10;36.00
22562;DHT22;11447;50.562;8.504;2022-08-21T15:33:42;28.00;35.80
22562;DHT22;11447;50.562;8.504;2022-08-21T15:36:11;28.00;35.90
22562;DHT22;11447;50.562;8.504;2022-08-21T15:38:38;27.90;36.30
22562;DHT22;11447;50.562;8.504;2022-08-21T15:41:05;28.00;36.30
22562;DHT22;11447;50.562;8.504;2022-08-21T15:43:35;28.00;35.90
22562;DHT22;11447;50.562;8.504;2022-08-21T15:46:05;28.00;36.10
22562;DHT22;11447;50.562;8.504;2022-08-21T15:48:35;28.00;35.60
22562;DHT22;11447;50.562;8.504;2022-08-21T15:51:03;28.00;35.80
22562;DHT22;11447;50.562;8.504;2022-08-21T15:53:30;28.00;35.80
22562;DHT22;11447;50.562;8.504;2022-08-21T15:56:01;28.00;35.90
22562;DHT22;11447;50.562;8.504;2022-08-21T15:58:28;28.00;35.80
22562;DHT22;11447;50.562;8.504;2022-08-21T16:00:56;27.90;35.60
22562;DHT22;11447;50.562;8.504;2022-08-21T16:03:24;27.90;35.90
22562;DHT22;11447;50.562;8.504;2022-08-21T16:05:52;27.80;35.80
22562;DHT22;11447;50.562;8.504;2022-08-21T16:08:23;27.80;35.80
22562;DHT22;11447;50.562;8.504;2022-08-21T16:10:52;27.70;35.60
22562;DHT22;11447;50.562;8.504;2022-08-21T16:13:34;27.70;36.00
22562;DHT22;11447;50.562;8.504;2022-08-21T16:16:02;27.60;35.90
22562;DHT22;11447;50.562;8.504;2022-08-21T16:18:29;27.60;36.10
22562;DHT22;11447;50.562;8.504;2022-08-21T16:20:55;27.60;36.00
22562;DHT22;11447;50.562;8.504;2022-08-21T16:23:24;27.60;35.90
22562;DHT22;11447;50.562;8.504;2022-08-21T16:25:51;27.60;36.00
22562;DHT22;11447;50.562;8.504;2022-08-21T16:28:21;27.50;35.70
22562;DHT22;11447;50.562;8.504;2022-08-21T16:30:50;27.50;36.00
22562;DHT22;11447;50.562;8.504;2022-08-21T16:33:21;27.50;36.10
22562;DHT22;11447;50.562;8.504;2022-08-21T16:35:48;27.50;35.90
22562;DHT22;11447;50.562;8.504;2022-08-21T16:38:15;27.50;36.70
22562;DHT22;11447;50.562;8.504;2022-08-21T16:40:41;27.50;35.90
22562;DHT22;11447;50.562;8.504;2022-08-21T16:43:08;27.40;36.10
22562;DHT22;11447;50.562;8.504;2022-08-21T16:45:42;27.40;36.10
22562;DHT22;11447;50.562;8.504;2022-08-21T16:48:09;27.40;36.00
22562;DHT22;11447;50.562;8.504;2022-08-21T16:50:36;27.40;36.40
22562;DHT22;11447;50.562;8.504;2022-08-21T16:53:03;27.40;36.20
22562;DHT22;11447;50.562;8.504;2022-08-21T16:55:29;27.30;36.20
22562;DHT22;11447;50.562;8.504;2022-08-21T16:57:56;27.30;35.90
22562;DHT22;11447;50.562;8.504;2022-08-21T17:00:23;27.30;35.70
22562;DHT22;11447;50.562;8.504;2022-08-21T17:02:51;27.30;36.00
22562;DHT22;11447;50.562;8.504;2022-08-21T17:05:19;27.30;35.50
22562;DHT22;11447;50.562;8.504;2022-08-21T17:07:45;27.30;35.60
22562;DHT22;11447;50.562;8.504;2022-08-21T17:10:15;27.20;35.40
22562;DHT22;11447;50.562;8.504;2022-08-21T17:12:42;27.30;35.90
22562;DHT22;11447;50.562;8.504;2022-08-21T17:15:21;27.20;35.70
22562;DHT22;11447;50.562;8.504;2022-08-21T17:17:48;27.20;35.80
22562;DHT22;11447;50.562;8.504;2022-08-21T17:20:17;27.10;35.90
22562;DHT22;11447;50.562;8.504;2022-08-21T17:22:44;27.10;36.30